CW8081 Thessaloniki GR current weather conditions

sailwx.info

Last reported at 2016-Jan-02 01:34 UTC.
Time now 2016-Jun-26 13:48 UTC

Location: N 40°34' E 022°58'.
View on Google Maps.

See reports from other nearby stations

  
Tides and Currents Weather Stations Pressure Air Temp Water Temp Dewpoint Dewpoint Depression Visibility Wind Speed Wind Dir Waves Ship Positions
date/time (UTC)wind fromknots sea level pressurealtimeterstation pressurevisibilityair tempwater tempwave heightnotes
2016-Jun-26 12:41 189 8 gusting 15 33.3
2016-Jun-26 12:11 063 2 gusting 6 36.1
2016-Jun-26 12:01 122 36.7
2016-Jun-26 11:01 130 34.4
2016-Jun-26 10:41 069 5 gusting 8 33.3
2016-Jun-26 10:31 026 4 gusting 10 33.3
2016-Jun-26 10:11 046 10 gusting 13 32.8
2016-Jun-26 10:01 355 6 gusting 11 32.8
2016-Jun-26 09:11 092 6 gusting 10 32.8
2016-Jun-26 09:01 079 7 gusting 17 32.2
2016-Jun-26 08:41 061 8 gusting 15 32.2
2016-Jun-26 08:31 049 8 gusting 13 32.2
2016-Jun-26 08:11 263 6 gusting 10 31.7
2016-Jun-26 07:41 027 6 gusting 11 30.6
2016-Jun-26 07:31 009 5 gusting 12 30.6
2016-Jun-26 07:11 321 4 gusting 10 29.4
2016-Jun-26 06:11 350 7 gusting 13 28.3
2016-Jun-26 05:41 319 5 gusting 17 28.3
2016-Jun-26 05:11 044 8 gusting 15 27.2
2016-Jun-26 04:41 015 4 gusting 6 25.6
2016-Jun-26 04:31 029 25.6
2016-Jun-26 03:41 018 24.4
2016-Jun-26 03:31 018 24.4
2016-Jun-26 03:11 018 25.0
2016-Jun-26 03:01 018 25.0
2016-Jun-26 02:31 018 25.0
2016-Jun-26 02:11 011 25.6
2016-Jun-26 01:41 013 0 gusting 4 25.6
2016-Jun-26 01:31 013 3 gusting 6 25.6
2016-Jun-26 01:11 032 4 gusting 6 26.1
2016-Jun-26 00:31 023 4 gusting 6 26.7
2016-Jun-26 00:11 045 26.7
2016-Jun-26 00:01 046 27.2
2016-Jun-25 23:41 045 27.2
2016-Jun-25 23:11 098 1 gusting 5 27.8
2016-Jun-25 23:01 136 0 gusting 5 27.8
2016-Jun-25 22:01 130 0 gusting 7 28.3
2016-Jun-25 21:41 156 2 gusting 8 28.9
2016-Jun-25 21:31 134 1 gusting 10 28.9
2016-Jun-25 21:11 153 2 gusting 6 28.9
2016-Jun-25 21:01 132 0 gusting 7 29.4
2016-Jun-25 20:41 138 29.4
2016-Jun-25 20:31 078 2 gusting 10 29.4
2016-Jun-25 20:01 096 2 gusting 12 29.4
2016-Jun-25 19:41 049 5 gusting 6 29.4
2016-Jun-25 19:31 082 1 gusting 6 28.9
2016-Jun-25 19:01 080 1 gusting 5 28.9
2016-Jun-25 18:41 216 28.9
2016-Jun-25 18:11 215 29.4
2016-Jun-25 18:01 215 29.4
2016-Jun-25 17:41 225 0 gusting 2 30.0
2016-Jun-25 17:11 211 2 gusting 6 30.6
2016-Jun-25 17:01 243 4 gusting 7 30.6
2016-Jun-25 16:41 254 31.7
2016-Jun-25 16:11 231 1 gusting 5 31.7
2016-Jun-25 15:11 200 5 gusting 8 32.8
2016-Jun-25 15:01 215 5 gusting 10 32.8
2016-Jun-25 14:41 223 2 gusting 10 32.8
2016-Jun-25 14:31 215 7 gusting 15 32.2
2016-Jun-25 14:11 207 9 gusting 17 32.8
2016-Jun-25 14:01 204 8 gusting 17 32.8
2016-Jun-25 13:41 209 7 gusting 12 33.3
2016-Jun-25 13:31 199 7 gusting 13 33.3
2016-Jun-25 13:11 192 7 gusting 11 34.4
2016-Jun-25 13:01 189 6 gusting 13 36.7
2016-Jun-25 12:41 082 5 gusting 11 36.1
2016-Jun-25 12:31 061 7 gusting 17 36.1
2016-Jun-25 12:11 079 4 gusting 13 37.2
2016-Jun-25 12:01 155 2 gusting 13 37.2
2016-Jun-25 11:41 046 0 gusting 6 37.8
2016-Jun-25 11:31 115 1 gusting 10 37.2
2016-Jun-25 11:11 104 1 gusting 7 36.1
2016-Jun-25 11:01 063 6 gusting 19 36.1
2016-Jun-25 10:41 142 3 gusting 13 35.6
2016-Jun-25 10:31 142 8 gusting 17 35.6
2016-Jun-25 10:01 141 5 gusting 15 35.0
2016-Jun-25 09:41 059 2 gusting 17 35.0
2016-Jun-25 09:31 131 2 gusting 10 34.4
2016-Jun-25 09:11 161 2 gusting 8 34.4
2016-Jun-25 09:01 137 4 gusting 17 33.9
2016-Jun-25 08:41 108 0 gusting 10 33.3
2016-Jun-25 08:31 202 0 gusting 10 32.2
2016-Jun-25 08:11 239 6 gusting 10 32.2
2016-Jun-25 06:31 286 5 gusting 10 28.9
2016-Jun-25 06:11 278 5 gusting 10 28.9
2016-Jun-25 06:01 313 6 gusting 10 28.9
2016-Jun-25 05:41 284 3 gusting 7 28.9
2016-Jun-25 05:31 309 28.9
2016-Jun-25 04:41 320 27.2
2016-Jun-25 04:31 030 26.7
2016-Jun-25 04:01 336 5 gusting 6 25.6
2016-Jun-25 03:41 323 25.6
2016-Jun-25 03:01 040 3 gusting 5 25.6
2016-Jun-25 02:41 030 0 gusting 4 25.6
2016-Jun-25 02:31 277 25.6
2016-Jun-25 02:11 276 2 gusting 4 26.1
2016-Jun-25 02:01 255 2 gusting 5 26.1
2016-Jun-25 01:41 065 26.7
2016-Jun-25 01:01 067 2 gusting 8 27.8
2016-Jun-25 00:41 355 5 gusting 10 27.8
2016-Jun-25 00:11 351 6 gusting 7 28.3
2016-Jun-24 23:31 347 4 gusting 7 28.3
2016-Jun-24 22:31 028 0 gusting 2 29.4
2016-Jun-24 22:11 028 0 gusting 6 29.4
2016-Jun-24 21:41 009 2 gusting 4 29.4
2016-Jun-24 21:31 119 0 gusting 6 30.0
2016-Jun-24 21:11 309 4 gusting 6 30.0
2016-Jun-24 21:01 019 1 gusting 5 30.6
2016-Jun-24 20:41 018 31.1
2016-Jun-24 20:11 088 0 gusting 4 31.7
2016-Jun-24 19:41 065 1 gusting 7 32.2
2016-Jun-24 19:31 081 1 gusting 6 32.2
2016-Jun-24 19:11 089 2 gusting 11 32.8
2016-Jun-24 19:01 066 4 gusting 13 32.8
2016-Jun-24 18:41 179 2 gusting 11 32.8
2016-Jun-24 18:31 157 4 gusting 13 32.8
2016-Jun-24 18:11 182 4 gusting 11 32.8
2016-Jun-24 17:41 168 7 gusting 12 33.3
2016-Jun-24 17:31 177 6 gusting 11 33.9
2016-Jun-24 17:11 171 5 gusting 12 34.4
2016-Jun-24 16:41 128 4 gusting 10 34.4
2016-Jun-24 16:31 199 1 gusting 12 35.0
2016-Jun-24 16:11 171 0 gusting 10 35.0
2016-Jun-24 15:31 051 6 gusting 12 35.0
2016-Jun-24 15:11 102 0 gusting 10 35.6
2016-Jun-24 15:01 049 2 gusting 8 35.0
2016-Jun-24 14:41 201 2 gusting 10 36.1
2016-Jun-24 13:41 138 1 gusting 7 37.8
2016-Jun-24 13:01 075 1 gusting 10 38.3